Terminal Aerodrome Forecast
Issued by NWS

Home | Current Version | Previous Version | Text Only | Print | Product List | Glossary On
Versions: 1 2 3 4 5 6 7 8 9 10 11 12 13 14
000
FTUS45 KPSR 251100
TAFBLH
TAF
KBLH 251124Z 2512/2612 35006KT P6SM FEW100
     FM251500 19007KT P6SM SCT100
     FM252300 22010KT P6SM FEW080 SCT250
     FM260600 23006KT P6SM FEW120=

USA.gov is the U.S. government's official web portal to all federal, state and local government web resources and services.